Time;durP1;ratioP1;P1;durP2;ratioP2;P2;SDS_P1;SDS_P2;PMS_P1;PMS_P2;Temp;Humidity;BMP_temperature;BMP_pressure;BME280_temperature;BME280_humidity;BME280_pressure;Samples;Min_cycle;Max_cycle;Signal;HPM_P1;HPM_P2
2021/11/23 00:00:31;;;;;;;0.50;0.50;;;;;;;-4.67;73.16;100004.22;6397069;22;20521;-77
2021/11/23 00:02:57;;;;;;;1.45;1.45;;;;;;;-4.69;73.52;100011.88;6397268;22;20013;-78
2021/11/23 00:05:29;;;;;;;0.63;0.63;;;;;;;-4.75;73.58;100012.69;6369940;22;20021;-78
2021/11/23 00:07:55;;;;;;;1.85;1.75;;;;;;;-4.81;73.58;99994.78;6397586;22;20018;-78
2021/11/23 00:10:21;;;;;;;0.63;0.63;;;;;;;-4.75;73.73;100009.28;6397884;22;20073;-77
2021/11/23 00:12:48;;;;;;;0.70;0.70;;;;;;;-4.75;73.76;100009.28;6397809;22;20018;-78
2021/11/23 00:15:14;;;;;;;0.60;0.60;;;;;;;-4.81;74.02;100012.59;6398078;22;20017;-78
2021/11/23 00:17:41;;;;;;;0.70;0.70;;;;;;;-4.76;74.41;100008.41;6369650;22;20066;-78
2021/11/23 00:20:08;;;;;;;1.17;1.17;;;;;;;-4.73;74.67;100012.69;6397821;22;20021;-78
2021/11/23 00:22:34;;;;;;;4.80;1.92;;;;;;;-4.79;75.38;100015.16;6369286;22;20036;-77
2021/11/23 00:25:00;;;;;;;0.70;0.70;;;;;;;-4.95;76.36;100010.78;6369160;22;20018;-77
2021/11/23 00:27:26;;;;;;;0.60;0.60;;;;;;;-4.95;76.57;100008.22;6397346;22;20018;-77
2021/11/23 00:29:53;;;;;;;0.70;0.70;;;;;;;-4.89;76.34;100011.69;6369004;22;20355;-78
2021/11/23 00:32:19;;;;;;;0.80;0.80;;;;;;;-4.84;75.98;100004.06;6397335;22;20017;-77
2021/11/23 00:34:45;;;;;;;0.70;0.70;;;;;;;-4.88;76.13;100005.78;6397055;22;20014;-78
2021/11/23 00:37:12;;;;;;;1.67;1.58;;;;;;;-4.89;76.07;100001.50;6397151;22;20018;-78
2021/11/23 00:39:38;;;;;;;0.98;0.98;;;;;;;-4.99;76.43;100014.13;6343329;22;20013;-77
2021/11/23 00:42:04;;;;;;;0.75;0.75;;;;;;;-5.03;77.03;100010.69;6397233;22;20018;-78
2021/11/23 00:44:30;;;;;;;0.70;0.70;;;;;;;-5.00;77.33;100009.88;6397575;22;20346;-77
2021/11/23 00:46:57;;;;;;;0.70;0.70;;;;;;;-5.00;76.93;99998.00;6396674;22;20108;-77
2021/11/23 00:49:23;;;;;;;0.60;0.60;;;;;;;-4.93;76.69;100002.31;6343102;22;20098;-78
2021/11/23 00:51:49;;;;;;;0.82;0.82;;;;;;;-4.93;76.95;100006.53;6397360;22;20353;-78
2021/11/23 00:54:15;;;;;;;0.90;0.90;;;;;;;-4.90;76.25;100006.56;6342859;22;20049;-79
2021/11/23 00:56:43;;;;;;;0.85;0.85;;;;;;;-4.93;76.38;100004.00;6369382;22;20094;-77
2021/11/23 00:59:09;;;;;;;0.88;0.88;;;;;;;-4.94;76.03;100004.84;6396770;22;20021;-78
2021/11/23 01:01:35;;;;;;;0.60;0.60;;;;;;;-4.90;75.49;100006.56;6397542;22;20516;-77
2021/11/23 01:04:02;;;;;;;0.63;0.63;;;;;;;-4.85;75.27;100012.56;6396174;22;20417;-78
2021/11/23 01:06:28;;;;;;;1.00;1.00;;;;;;;-4.88;74.97;100004.91;6368972;22;20071;-77
2021/11/23 01:08:54;;;;;;;0.70;0.70;;;;;;;-4.90;75.02;100009.13;6368655;22;20473;-78
2021/11/23 01:11:20;;;;;;;0.70;0.70;;;;;;;-4.96;74.68;100009.91;6397006;22;20105;-78
2021/11/23 01:13:46;;;;;;;0.80;0.80;;;;;;;-5.01;75.17;100018.34;6368860;22;20043;-78
2021/11/23 01:16:12;;;;;;;0.80;0.80;;;;;;;-5.13;75.48;100015.66;6396737;22;20016;-78
2021/11/23 01:18:38;;;;;;;1.23;1.13;;;;;;;-5.31;76.98;100018.88;6397587;22;20014;-79
2021/11/23 01:21:05;;;;;;;0.80;0.80;;;;;;;-5.34;77.62;100019.72;6397313;22;20018;-78
2021/11/23 01:23:31;;;;;;;0.80;0.80;;;;;;;-5.33;77.27;100011.22;6369371;22;20586;-78
2021/11/23 01:25:57;;;;;;;0.70;0.70;;;;;;;-5.32;77.15;100007.84;6369162;22;20070;-79
2021/11/23 01:28:23;;;;;;;0.60;0.60;;;;;;;-5.38;76.86;100017.97;6397842;22;20014;-79
2021/11/23 01:30:50;;;;;;;0.70;0.70;;;;;;;-5.44;77.05;100011.94;6397951;22;20024;-78
2021/11/23 01:33:17;;;;;;;1.20;1.20;;;;;;;-5.42;77.47;100013.66;6376160;22;20100;-77
2021/11/23 01:35:43;;;;;;;0.60;0.60;;;;;;;-5.52;78.02;100011.84;6410171;22;20096;-78
2021/11/23 01:38:10;;;;;;;0.75;0.75;;;;;;;-5.55;77.95;100013.50;6386497;22;20430;-81
2021/11/23 01:40:36;;;;;;;0.70;0.70;;;;;;;-5.58;77.93;100014.31;6412756;22;20029;-78
2021/11/23 01:43:06;;;;;;;1.05;1.05;;;;;;;-5.55;77.58;100013.50;6380890;22;20077;-78
2021/11/23 01:45:39;;;;;;;1.00;1.00;;;;;;;-5.57;77.63;100021.13;6397568;22;20013;-77
2021/11/23 01:48:06;;;;;;;1.23;1.23;;;;;;;-5.62;78.06;100002.41;6369405;22;20100;-79
2021/11/23 01:50:33;;;;;;;0.88;0.88;;;;;;;-5.52;77.83;100014.41;6397076;22;20014;-78
2021/11/23 01:53:00;;;;;;;0.70;0.70;;;;;;;-5.53;77.47;100020.31;6396618;22;20043;-78
2021/11/23 01:55:27;;;;;;;0.70;0.70;;;;;;;-5.63;77.45;100005.81;6368845;22;20461;-78
2021/11/23 01:57:53;;;;;;;0.52;0.52;;;;;;;-5.53;77.30;100016.94;6396830;22;20453;-79
2021/11/23 02:00:19;;;;;;;0.90;0.90;;;;;;;-5.53;77.58;100012.69;6368986;22;20017;-78
2021/11/23 02:02:45;;;;;;;0.70;0.70;;;;;;;-5.49;77.36;100014.44;6396592;22;20483;-78
2021/11/23 02:05:12;;;;;;;0.73;0.73;;;;;;;-5.54;77.87;100013.53;6396192;22;20038;-77
2021/11/23 02:07:38;;;;;;;0.82;0.82;;;;;;;-5.62;77.80;100012.56;6396676;22;20021;-77
2021/11/23 02:10:06;;;;;;;1.48;1.48;;;;;;;-5.63;77.58;100015.97;6345840;22;20013;-77
2021/11/23 02:12:32;;;;;;;0.90;0.90;;;;;;;-5.72;78.05;100005.66;6400788;22;20018;-76
2021/11/23 02:14:58;;;;;;;0.50;0.50;;;;;;;-5.74;78.64;100002.25;6316462;22;20121;-78
2021/11/23 02:17:24;;;;;;;0.68;0.68;;;;;;;-5.67;77.98;100010.81;6368813;22;20488;-78
2021/11/23 02:19:52;;;;;;;13.90;1.65;;;;;;;-5.70;78.16;100003.16;6397233;22;20014;-78
2021/11/23 02:22:19;;;;;;;3.72;1.85;;;;;;;-5.69;78.34;100003.16;6396795;22;20017;-76
2021/11/23 02:24:45;;;;;;;0.70;0.70;;;;;;;-5.77;77.94;99999.69;6396948;22;20048;-79
2021/11/23 02:27:11;;;;;;;6.55;1.60;;;;;;;-5.82;78.17;100009.78;6316888;22;20013;-77
2021/11/23 02:29:37;;;;;;;0.60;0.60;;;;;;;-5.84;78.50;100010.59;6398049;22;20014;-77
2021/11/23 02:32:04;;;;;;;0.68;0.68;;;;;;;-5.87;78.95;100015.69;6368213;22;20025;-79
2021/11/23 02:34:30;;;;;;;0.63;0.63;;;;;;;-5.93;78.65;100020.69;6368823;22;20022;-78
2021/11/23 02:36:56;;;;;;;0.60;0.60;;;;;;;-5.88;78.95;100019.03;6396044;22;20022;-79
2021/11/23 02:39:23;;;;;;;0.70;0.70;;;;;;;-5.90;79.31;100019.03;6367716;22;20017;-78
2021/11/23 02:41:49;;;;;;;1.40;1.30;;;;;;;-5.92;79.08;100007.13;6368313;22;20465;-78
2021/11/23 02:44:15;;;;;;;1.08;1.08;;;;;;;-5.92;79.92;100017.28;6395571;22;20807;-78
2021/11/23 02:46:41;;;;;;;0.68;0.68;;;;;;;-5.96;79.58;100016.41;6367710;22;20105;-78
2021/11/23 02:49:08;;;;;;;0.70;0.70;;;;;;;-5.95;79.03;100012.16;6367715;22;20066;-79
2021/11/23 02:51:36;;;;;;;0.80;0.80;;;;;;;-5.94;79.67;100019.81;6395993;22;20515;-76
2021/11/23 02:54:04;;;;;;;0.80;0.80;;;;;;;-6.02;79.56;100020.56;6395924;22;20017;-77
2021/11/23 02:56:30;;;;;;;0.73;0.73;;;;;;;-6.06;80.13;100018.81;6396042;22;20282;-78
2021/11/23 02:58:57;;;;;;;1.20;1.20;;;;;;;-6.09;80.20;100024.72;6395652;22;20017;-78
2021/11/23 03:01:24;;;;;;;1.20;1.10;;;;;;;-6.04;80.33;100017.13;6367741;22;20014;-78
2021/11/23 03:03:51;;;;;;;0.70;0.70;;;;;;;-6.07;80.49;100022.16;6396009;22;20374;-79
2021/11/23 03:06:17;;;;;;;0.80;0.80;;;;;;;-6.08;80.20;100025.53;6368561;22;20022;-78
2021/11/23 03:08:45;;;;;;;0.80;0.80;;;;;;;-6.07;80.31;100030.66;6395945;22;20043;-77
2021/11/23 03:11:11;;;;;;;0.73;0.73;;;;;;;-6.10;80.17;100022.97;6396059;22;20902;-78
2021/11/23 03:13:38;;;;;;;0.88;0.88;;;;;;;-6.08;80.98;100020.44;6367100;22;20082;-76
2021/11/23 03:16:04;;;;;;;0.70;0.70;;;;;;;-6.11;80.63;100017.88;6395120;22;20048;-77
2021/11/23 03:18:30;;;;;;;2.50;1.00;;;;;;;-6.06;80.56;100028.97;6367925;22;20618;-79
2021/11/23 03:20:56;;;;;;;0.80;0.80;;;;;;;-6.09;80.97;100021.31;6368028;22;20021;-78
2021/11/23 03:23:22;;;;;;;1.27;1.27;;;;;;;-6.15;81.09;100023.75;6367350;22;20468;-78
2021/11/23 03:25:48;;;;;;;3.15;2.92;;;;;;;-6.15;80.93;100019.50;6395897;22;20520;-77
2021/11/23 03:28:14;;;;;;;0.90;0.90;;;;;;;-6.17;80.62;100015.25;6395582;22;20025;-78
2021/11/23 03:30:41;;;;;;;0.88;0.88;;;;;;;-6.12;80.72;100023.81;6395885;22;20059;-78
2021/11/23 03:33:08;;;;;;;1.00;1.00;;;;;;;-6.11;80.63;100020.41;6396043;22;20121;-76
2021/11/23 03:35:36;;;;;;;0.80;0.80;;;;;;;-6.12;80.88;100033.97;6343045;22;20014;-77
2021/11/23 03:38:03;;;;;;;1.10;1.10;;;;;;;-6.15;80.88;100044.09;6395900;22;20109;-78
2021/11/23 03:40:29;;;;;;;0.93;0.93;;;;;;;-6.19;81.06;100037.25;6368012;22;20048;-77
2021/11/23 03:42:56;;;;;;;1.02;1.02;;;;;;;-6.22;81.18;100037.19;6367331;22;20014;-77
2021/11/23 03:45:22;;;;;;;0.70;0.70;;;;;;;-6.25;81.56;100047.31;6367514;22;20013;-76
2021/11/23 03:47:48;;;;;;;0.77;0.77;;;;;;;-6.29;81.68;100043.00;6369061;22;20018;-79
2021/11/23 03:50:16;;;;;;;1.42;1.33;;;;;;;-6.29;81.80;100045.56;6397660;22;20018;-76
2021/11/23 03:52:42;;;;;;;0.70;0.70;;;;;;;-6.30;81.44;100043.84;6369818;22;20433;-79
2021/11/23 03:55:09;;;;;;;2.83;2.05;;;;;;;-6.33;82.28;100039.56;6396892;22;20105;-77
2021/11/23 03:57:36;;;;;;;2.65;2.55;;;;;;;-6.29;82.02;100037.94;6396287;22;20025;-77
2021/11/23 04:00:04;;;;;;;0.80;0.80;;;;;;;-6.35;82.44;100044.59;6395403;22;20479;-78
2021/11/23 04:02:38;;;;;;;1.42;1.42;;;;;;;-6.29;82.02;100046.41;6395678;22;20086;-77
2021/11/23 04:05:05;;;;;;;1.25;1.25;;;;;;;-6.36;81.67;100032.75;6367437;22;20349;-77
2021/11/23 04:07:31;;;;;;;0.77;0.77;;;;;;;-6.30;81.91;100039.59;6395879;22;20455;-78
2021/11/23 04:09:57;;;;;;;0.90;0.90;;;;;;;-6.31;81.75;100047.22;6396411;22;20013;-78
2021/11/23 04:12:23;;;;;;;1.35;1.35;;;;;;;-6.30;82.19;100051.44;6398441;22;20028;-76
2021/11/23 04:14:49;;;;;;;0.80;0.80;;;;;;;-6.31;82.17;100047.22;6369549;22;20342;-76
2021/11/23 04:17:15;;;;;;;1.02;1.02;;;;;;;-6.31;82.47;100048.03;6397241;22;20020;-76
2021/11/23 04:19:43;;;;;;;0.88;0.88;;;;;;;-6.30;82.38;100044.69;6369425;22;20021;-76
2021/11/23 04:22:09;;;;;;;1.00;1.00;;;;;;;-6.30;82.16;100043.84;6397190;22;20010;-77
2021/11/23 04:24:36;;;;;;;1.80;1.70;;;;;;;-6.34;82.34;100051.41;6369124;22;20017;-77
2021/11/23 04:27:02;;;;;;;0.90;0.90;;;;;;;-6.38;82.54;100049.63;6314686;22;20681;-78
2021/11/23 04:29:28;;;;;;;0.80;0.80;;;;;;;-6.38;82.62;100047.09;6367856;22;20043;-77
2021/11/23 04:31:55;;;;;;;0.68;0.68;;;;;;;-6.34;82.57;100053.94;6396740;22;20066;-76
2021/11/23 04:34:22;;;;;;;0.60;0.60;;;;;;;-6.26;82.77;100055.75;6396859;22;20018;-77
2021/11/23 04:36:48;;;;;;;0.60;0.60;;;;;;;-6.25;82.81;100052.38;6396990;22;20058;-77
2021/11/23 04:39:14;;;;;;;4.65;2.25;;;;;;;-6.24;82.85;100051.53;6396496;22;20020;-76
2021/11/23 04:41:40;;;;;;;1.15;1.15;;;;;;;-6.19;82.21;100057.56;6368871;22;20423;-76
2021/11/23 04:44:07;;;;;;;0.73;0.73;;;;;;;-6.16;82.21;100048.31;6368039;22;20074;-76
2021/11/23 04:46:33;;;;;;;1.02;1.02;;;;;;;-6.10;82.33;100052.59;6342077;22;20055;-77
2021/11/23 04:48:59;;;;;;;3.22;2.15;;;;;;;-6.14;82.31;100040.69;6396456;22;20021;-76
2021/11/23 04:51:25;;;;;;;1.27;1.27;;;;;;;-6.09;81.98;100059.41;6368185;22;20095;-76
2021/11/23 04:53:51;;;;;;;2.22;2.13;;;;;;;-6.09;82.13;100054.31;6396856;22;20040;-76
2021/11/23 04:56:18;;;;;;;1.30;1.23;;;;;;;-6.05;81.85;100058.63;6396890;22;20017;-76
2021/11/23 04:58:44;;;;;;;2.33;1.70;;;;;;;-6.03;81.88;100062.03;6396975;22;20455;-76
2021/11/23 05:01:10;;;;;;;4.30;1.45;;;;;;;-6.00;81.46;100054.44;6397000;22;20014;-75
2021/11/23 05:03:37;;;;;;;1.10;1.10;;;;;;;-6.01;81.65;100053.59;6369423;22;20025;-76
2021/11/23 05:06:03;;;;;;;1.70;1.70;;;;;;;-6.00;81.63;100049.38;6368524;22;20396;-77
2021/11/23 05:08:29;;;;;;;0.70;0.70;;;;;;;-5.93;81.36;100062.19;6396514;22;20018;-76
2021/11/23 05:10:55;;;;;;;0.85;0.85;;;;;;;-5.89;81.15;100066.47;6396622;22;20045;-75
2021/11/23 05:13:21;;;;;;;0.90;0.90;;;;;;;-5.84;81.07;100066.50;6396943;22;20460;-75
2021/11/23 05:15:48;;;;;;;0.85;0.85;;;;;;;-5.88;80.89;100055.47;6369378;22;20010;-76
2021/11/23 05:18:14;;;;;;;1.75;1.65;;;;;;;-5.79;81.06;100075.03;6368437;22;20025;-76
2021/11/23 05:20:40;;;;;;;0.90;0.85;;;;;;;-5.74;80.89;100072.56;6396955;22;20544;-76
2021/11/23 05:23:06;;;;;;;0.88;0.88;;;;;;;-5.73;81.12;100074.28;6396519;22;20017;-76
2021/11/23 05:25:32;;;;;;;0.80;0.80;;;;;;;-5.73;80.79;100071.75;6369532;22;20018;-75
2021/11/23 05:27:57;;;;;;;2.25;1.50;;;;;;;-5.74;80.57;100063.25;6397800;22;20021;-76
2021/11/23 05:30:24;;;;;;;0.73;0.73;;;;;;;-5.68;80.72;100073.50;6398782;22;20014;-77
2021/11/23 05:32:52;;;;;;;0.90;0.90;;;;;;;-5.64;80.67;100074.41;6398885;22;20104;-74
2021/11/23 05:35:18;;;;;;;1.63;1.55;;;;;;;-5.47;80.39;100073.81;6369752;22;20014;-75
2021/11/23 05:37:45;;;;;;;0.75;0.75;;;;;;;-5.33;79.50;100066.31;6369213;22;20020;-74
2021/11/23 05:40:13;;;;;;;0.80;0.80;;;;;;;-4.78;78.25;100073.72;6368223;22;20013;-76
2021/11/23 05:42:39;;;;;;;1.08;1.08;;;;;;;-4.87;77.02;100072.78;6396766;22;20096;-75
2021/11/23 05:45:08;;;;;;;0.85;0.85;;;;;;;-5.23;78.72;100077.47;6368799;22;20017;-75
2021/11/23 05:47:36;;;;;;;0.70;0.70;;;;;;;-5.39;79.66;100077.28;6367304;22;20461;-76
2021/11/23 05:50:04;;;;;;;0.70;0.70;;;;;;;-5.46;80.19;100070.41;6371173;22;20070;-80
2021/11/23 05:52:31;;;;;;;1.20;1.20;;;;;;;-5.41;80.38;100086.59;6318547;22;20090;-80
2021/11/23 05:54:57;;;;;;;1.25;1.25;;;;;;;-5.46;80.62;100085.66;6395460;22;20022;-75
2021/11/23 05:57:23;;;;;;;0.88;0.88;;;;;;;-5.42;80.70;100091.66;6394849;22;20018;-75
2021/11/23 05:59:49;;;;;;;0.70;0.70;;;;;;;-5.40;80.65;100078.09;6367172;22;20018;-75
2021/11/23 06:02:15;;;;;;;1.05;1.05;;;;;;;-5.35;80.32;100080.72;6288973;22;20043;-76
2021/11/23 06:04:42;;;;;;;1.02;1.02;;;;;;;-5.29;80.27;100078.25;6315106;22;20045;-78
2021/11/23 06:07:07;;;;;;;1.58;1.58;;;;;;;-4.69;79.26;100084.84;6367443;22;20048;-77
2021/11/23 06:09:34;;;;;;;1.15;1.10;;;;;;;-4.34;76.91;100074.13;6400256;22;20013;-74
2021/11/23 06:12:00;;;;;;;2.47;2.35;;;;;;;-3.26;74.01;100075.66;6372912;22;20025;-76
2021/11/23 06:14:26;;;;;;;0.80;0.80;;;;;;;-2.40;68.64;100072.47;6338498;22;20014;-78
2021/11/23 06:16:53;;;;;;;0.95;0.95;;;;;;;-2.38;67.94;100075.88;6340377;22;20020;-77
2021/11/23 06:19:21;;;;;;;0.93;0.93;;;;;;;-1.77;66.06;100070.72;6367113;22;20092;-77
2021/11/23 06:21:47;;;;;;;1.02;1.02;;;;;;;-2.15;66.48;100084.41;6340656;22;20024;-80
2021/11/23 06:24:13;;;;;;;1.05;1.05;;;;;;;-1.80;66.17;100075.84;6367167;22;20024;-78
2021/11/23 06:26:39;;;;;;;1.20;1.20;;;;;;;-1.12;63.82;100073.09;6365992;22;20021;-77
2021/11/23 06:29:05;;;;;;;0.80;0.80;;;;;;;-0.64;61.78;100071.97;6337694;22;20018;-79
2021/11/23 06:31:31;;;;;;;0.80;0.80;;;;;;;-0.79;62.68;100072.06;6365917;22;20028;-78
2021/11/23 06:33:59;;;;;;;1.33;1.33;;;;;;;-0.51;61.78;100068.47;6366513;22;20026;-77
2021/11/23 06:36:25;;;;;;;1.58;1.48;;;;;;;-0.42;61.50;100073.50;6396094;22;20514;-78
2021/11/23 06:38:57;;;;;;;1.33;1.33;;;;;;;0.27;58.73;100073.78;6395790;22;20092;-81
2021/11/23 06:41:37;;;;;;;1.38;1.38;;;;;;;-0.43;60.67;100051.31;6320922;22;20151;-80
2021/11/23 06:44:03;;;;;;;1.10;1.10;;;;;;;-0.73;62.73;100061.78;6394483;22;20440;-80
2021/11/23 06:46:30;;;;;;;1.23;1.23;;;;;;;-0.06;60.68;100062.97;6394198;22;20014;-78
2021/11/23 06:48:56;;;;;;;1.38;1.38;;;;;;;0.26;58.82;100059.28;6340306;22;20488;-78
2021/11/23 06:51:23;;;;;;;0.80;0.80;;;;;;;-0.62;61.83;100060.84;6339758;22;20052;-76
2021/11/23 06:53:48;;;;;;;1.15;1.15;;;;;;;-1.26;63.83;100060.34;6394551;22;20021;-76
2021/11/23 06:56:15;;;;;;;1.48;1.48;;;;;;;-2.06;67.46;100072.47;6394536;22;20100;-80
2021/11/23 06:58:42;;;;;;;1.83;1.73;;;;;;;-2.89;70.55;100078.34;6394222;22;20096;-81
2021/11/23 07:01:08;;;;;;;2.17;2.08;;;;;;;-2.57;69.57;100070.72;6340563;22;20151;-80
2021/11/23 07:03:34;;;;;;;5.32;2.55;;;;;;;-1.47;68.07;100070.63;6314432;22;20109;-81
2021/11/23 07:06:00;;;;;;;0.90;0.90;;;;;;;-1.05;65.43;100080.72;6366748;22;20159;-80
2021/11/23 07:08:26;;;;;;;1.10;1.10;;;;;;;-0.17;62.69;100079.31;6367337;22;20021;-78
2021/11/23 07:10:52;;;;;;;1.23;1.13;;;;;;;-0.83;63.02;100085.75;6365228;22;20782;-75
2021/11/23 07:13:19;;;;;;;1.33;1.33;;;;;;;-1.66;66.50;100089.44;6394333;22;20018;-77
2021/11/23 07:15:46;;;;;;;1.77;1.70;;;;;;;-1.20;65.54;100079.94;6366488;22;20022;-77
2021/11/23 07:18:12;;;;;;;1.67;1.67;;;;;;;-1.29;66.05;100085.94;6392773;22;20496;-77
2021/11/23 07:20:39;;;;;;;1.17;1.17;;;;;;;-0.39;62.66;100088.88;6314606;22;20048;-77
2021/11/23 07:23:05;;;;;;;1.33;1.30;;;;;;;-0.78;65.59;100089.13;6394936;22;20414;-78
2021/11/23 07:25:31;;;;;;;1.80;1.70;;;;;;;-1.08;65.48;100093.53;6366372;22;20013;-78
2021/11/23 07:28:00;;;;;;;1.00;1.00;;;;;;;-1.81;68.05;100099.72;6366710;22;20020;-79
2021/11/23 07:30:26;;;;;;;1.48;1.48;;;;;;;-2.31;70.55;100087.81;6367150;22;20076;-76
2021/11/23 07:32:52;;;;;;;0.50;0.50;;;;;;;-2.91;73.67;100103.03;6366319;22;20013;-77
2021/11/23 07:35:19;;;;;;;7.15;2.50;;;;;;;-3.16;75.35;100102.06;6365933;22;20108;-77
2021/11/23 07:37:46;;;;;;;0.70;0.70;;;;;;;-3.40;78.20;100112.16;6394827;22;20060;-78
2021/11/23 07:40:13;;;;;;;1.02;1.02;;;;;;;-3.41;78.97;100118.13;6313385;22;20021;-78
2021/11/23 07:42:39;;;;;;;0.90;0.90;;;;;;;-3.49;80.31;100107.88;6366955;22;20018;-79
2021/11/23 07:45:06;;;;;;;0.93;0.93;;;;;;;-3.44;80.96;100110.47;6369186;22;20013;-76
2021/11/23 07:47:32;;;;;;;0.88;0.88;;;;;;;-3.61;81.75;100110.34;6404324;22;20146;-77
2021/11/23 07:49:58;;;;;;;1.33;1.33;;;;;;;-3.45;82.06;100118.94;6377020;22;20021;-78
2021/11/23 07:52:24;;;;;;;1.65;1.65;;;;;;;-3.49;81.78;100105.31;6406704;22;20018;-77
2021/11/23 07:54:50;;;;;;;1.50;1.45;;;;;;;-3.34;81.60;100110.50;6378838;22;20097;-77
2021/11/23 07:57:16;;;;;;;4.68;4.30;;;;;;;-1.80;76.54;100106.56;6352840;22;20018;-79
2021/11/23 07:59:42;;;;;;;0.93;0.93;;;;;;;-0.33;68.08;100099.13;6370799;22;20024;-77
2021/11/23 08:02:09;;;;;;;1.90;1.83;;;;;;;-1.28;72.06;100109.84;6396851;22;20101;-75
2021/11/23 08:04:35;;;;;;;1.52;1.52;;;;;;;-2.09;74.65;100115.94;6368387;22;20013;-75
2021/11/23 08:07:01;;;;;;;0.80;0.80;;;;;;;-1.98;73.47;100116.78;6342608;22;20010;-74
2021/11/23 08:09:30;;;;;;;2.17;1.33;;;;;;;-1.35;70.99;100111.59;6397525;22;20017;-77
2021/11/23 08:11:56;;;;;;;1.85;1.75;;;;;;;-1.81;72.09;100110.81;6396796;22;20019;-82
2021/11/23 08:14:24;;;;;;;0.80;0.80;;;;;;;-1.08;69.57;100106.34;6395910;22;20117;-79
2021/11/23 08:16:50;;;;;;;1.38;1.38;;;;;;;-1.80;71.59;100109.13;6367474;22;20018;-80
2021/11/23 08:19:16;;;;;;;1.30;1.30;;;;;;;-2.30;73.48;100112.53;6395439;22;20018;-79
2021/11/23 08:21:42;;;;;;;1.33;1.33;;;;;;;-2.21;74.21;100120.19;6368498;22;20014;-81
2021/11/23 08:24:08;;;;;;;2.40;1.23;;;;;;;-2.30;74.25;100109.97;6396720;22;20061;-79
2021/11/23 08:26:34;;;;;;;0.70;0.70;;;;;;;-2.34;74.61;100108.25;6367676;22;20068;-80
2021/11/23 08:29:00;;;;;;;0.98;0.98;;;;;;;-2.30;74.77;100109.09;6367954;22;20018;-81
2021/11/23 08:31:26;;;;;;;0.60;0.60;;;;;;;-2.36;75.31;100099.75;6395628;22;20033;-81
2021/11/23 08:33:52;;;;;;;3.72;2.47;;;;;;;-2.19;75.19;100102.28;6395059;22;20025;-77
2021/11/23 08:36:18;;;;;;;2.67;1.98;;;;;;;-2.27;75.54;100099.75;6367845;22;20014;-81
2021/11/23 08:38:44;;;;;;;0.63;0.63;;;;;;;-2.31;75.73;100090.34;6395853;22;20072;-81
2021/11/23 08:41:11;;;;;;;4.45;2.55;;;;;;;-1.75;73.60;100098.00;6395884;22;20067;-80
2021/11/23 08:43:37;;;;;;;1.13;1.13;;;;;;;-1.51;73.20;100106.50;6367004;22;20407;-77
2021/11/23 08:46:03;;;;;;;1.70;1.65;;;;;;;-2.07;74.46;100104.00;6366427;22;20038;-77
2021/11/23 08:48:29;;;;;;;8.88;1.20;;;;;;;-2.54;75.79;100094.59;6365442;22;20018;-78
2021/11/23 08:50:56;;;;;;;0.70;0.70;;;;;;;-2.37;76.26;100115.91;6339366;22;20024;-77
2021/11/23 08:53:22;;;;;;;0.65;0.65;;;;;;;-2.17;75.60;100109.13;6364982;22;20041;-78
2021/11/23 08:55:48;;;;;;;0.70;0.70;;;;;;;-2.06;75.58;100109.09;6362650;22;20022;-78
2021/11/23 08:58:14;;;;;;;0.90;0.90;;;;;;;-2.16;75.02;100107.41;6364376;22;20785;-79
2021/11/23 09:00:41;;;;;;;1.08;1.08;;;;;;;-2.36;74.78;100109.97;6393857;22;20104;-78
2021/11/23 09:03:07;;;;;;;0.60;0.60;;;;;;;-2.28;74.32;100095.47;6394859;22;20021;-79
2021/11/23 09:05:36;;;;;;;1.17;1.17;;;;;;;-2.41;75.21;100095.44;6366749;22;20113;-79
2021/11/23 09:08:03;;;;;;;0.70;0.70;;;;;;;-2.15;75.04;100094.63;6366514;22;20017;-78
2021/11/23 09:10:32;;;;;;;0.68;0.68;;;;;;;-2.03;74.03;100103.16;6363841;22;20013;-80
2021/11/23 09:12:59;;;;;;;1.02;1.02;;;;;;;-2.02;73.65;100085.25;6365640;22;20670;-80
2021/11/23 09:15:26;;;;;;;1.10;1.10;;;;;;;-2.15;74.54;100094.63;6366408;22;20036;-78
2021/11/23 09:17:52;;;;;;;8.88;4.10;;;;;;;-2.02;74.09;100105.69;6367129;22;20014;-79
2021/11/23 09:20:18;;;;;;;0.60;0.60;;;;;;;-1.98;73.03;100106.56;6339210;22;20013;-79
2021/11/23 09:22:45;;;;;;;1.00;1.00;;;;;;;-1.74;72.85;100102.28;6317804;22;20066;-77
2021/11/23 09:25:12;;;;;;;0.75;0.75;;;;;;;-1.92;72.32;100101.44;6367873;22;20081;-79
2021/11/23 09:27:38;;;;;;;0.73;0.73;;;;;;;-1.72;71.68;100105.69;6369354;22;20045;-78
2021/11/23 09:30:07;;;;;;;0.57;0.57;;;;;;;-1.91;71.89;100098.88;6369917;22;20017;-80
2021/11/23 09:32:34;;;;;;;1.42;1.42;;;;;;;-1.65;71.08;100104.81;6291058;22;20561;-80
2021/11/23 09:35:01;;;;;;;0.77;0.77;;;;;;;-1.74;71.27;100106.53;6265536;22;20013;-79
2021/11/23 09:37:28;;;;;;;0.90;0.90;;;;;;;-1.76;71.73;100082.66;6264979;22;20025;-81
2021/11/23 09:39:55;;;;;;;0.90;0.90;;;;;;;-1.55;70.93;100097.13;6315601;22;20029;-81
2021/11/23 09:42:22;;;;;;;0.85;0.85;;;;;;;-2.16;71.93;100076.75;6290589;22;20013;-80
2021/11/23 09:44:49;;;;;;;0.77;0.77;;;;;;;-2.07;71.59;100079.28;6290481;22;20018;-81
2021/11/23 09:47:16;;;;;;;0.93;0.93;;;;;;;-1.96;71.18;100090.34;6343054;22;20100;-79
2021/11/23 09:49:42;;;;;;;0.52;0.52;;;;;;;-2.06;71.33;100093.75;6396711;22;20013;-77
2021/11/23 09:52:08;;;;;;;0.70;0.70;;;;;;;-1.98;70.87;100086.09;6368291;22;20094;-78
2021/11/23 09:54:34;;;;;;;0.82;0.82;;;;;;;-1.88;70.20;100090.34;6367407;22;20025;-78
2021/11/23 09:57:00;;;;;;;0.85;0.85;;;;;;;-1.75;69.80;100080.09;6395931;22;20353;-79
2021/11/23 09:59:27;;;;;;;0.90;0.90;;;;;;;-1.82;70.43;100082.66;6395472;22;20018;-79
2021/11/23 10:01:55;;;;;;;1.20;1.20;;;;;;;-1.78;70.35;100080.09;6367172;22;20056;-79
2021/11/23 10:04:23;;;;;;;0.73;0.73;;;;;;;-1.79;70.64;100098.00;6340676;22;20504;-79
2021/11/23 10:06:56;;;;;;;0.60;0.60;;;;;;;-1.61;70.01;100083.50;6367409;22;20357;-78
2021/11/23 10:09:50;;;;;;;2.28;2.10;;;;;;;-1.58;68.94;100092.88;6366409;22;20018;-79
2021/11/23 10:12:27;;;;;;;0.63;0.63;;;;;;;-1.79;68.73;100085.22;6335795;22;20033;-80
2021/11/23 10:15:20;;;;;;;0.60;0.60;;;;;;;-1.84;68.42;100084.38;6394759;22;20346;-79
2021/11/23 10:17:50;;;;;;;1.35;1.35;;;;;;;-1.68;68.09;100086.06;6367325;22;20376;-80
2021/11/23 10:20:44;;;;;;;0.65;0.65;;;;;;;-1.49;67.31;100094.53;6367093;22;20021;-81
2021/11/23 10:23:14;;;;;;;1.00;1.00;;;;;;;-1.52;67.14;100095.41;6361534;22;20075;-79
2021/11/23 10:25:40;;;;;;;0.93;0.93;;;;;;;-1.41;66.87;100086.00;6367638;22;20432;-79
2021/11/23 10:28:06;;;;;;;0.77;0.77;;;;;;;-1.42;67.16;100086.84;6367446;22;20041;-80
2021/11/23 10:30:32;;;;;;;0.95;0.95;;;;;;;-1.51;67.92;100083.47;6341232;22;20081;-79
2021/11/23 10:32:58;;;;;;;0.98;0.98;;;;;;;-1.50;67.62;100090.25;6395700;22;20013;-80
2021/11/23 10:35:25;;;;;;;0.82;0.82;;;;;;;-1.29;65.64;100083.38;6366935;22;20014;-80
2021/11/23 10:37:51;;;;;;;0.60;0.60;;;;;;;-1.31;65.93;100079.97;6367045;22;20097;-80
2021/11/23 10:40:24;;;;;;;0.60;0.60;;;;;;;-1.15;64.69;100080.78;6366609;22;20070;-80
2021/11/23 10:42:59;;;;;;;0.85;0.85;;;;;;;-1.31;65.14;100072.28;6396104;22;20018;-79
2021/11/23 10:45:25;;;;;;;0.80;0.80;;;;;;;-1.30;64.89;100079.13;6316032;22;20017;-80
2021/11/23 10:47:51;;;;;;;0.93;0.93;;;;;;;-1.11;63.80;100075.63;6396560;22;20022;-80
2021/11/23 10:50:19;;;;;;;0.82;0.82;;;;;;;-1.23;63.72;100078.25;6396137;22;20046;-80
2021/11/23 10:52:48;;;;;;;0.55;0.55;;;;;;;-1.24;63.85;100073.13;6396761;22;20457;-80
2021/11/23 10:55:17;;;;;;;0.70;0.70;;;;;;;-1.18;67.22;100075.69;6341900;22;20365;-80
2021/11/23 10:57:43;;;;;;;1.02;1.02;;;;;;;-1.29;68.15;100070.59;6396171;22;20017;-80
2021/11/23 11:00:11;;;;;;;0.93;0.93;;;;;;;-1.32;67.19;100075.72;6341705;22;20014;-77
2021/11/23 11:02:38;;;;;;;0.70;0.70;;;;;;;-1.34;67.44;100077.41;6367140;22;20075;-78
2021/11/23 11:05:09;;;;;;;0.93;0.93;;;;;;;-1.35;67.09;100074.88;6394511;22;20018;-78
2021/11/23 11:07:36;;;;;;;1.15;1.15;;;;;;;-1.48;66.98;100076.63;6367797;22;20041;-76
2021/11/23 11:10:04;;;;;;;1.20;1.20;;;;;;;-1.47;66.63;100075.75;6318137;22;20021;-79
2021/11/23 11:12:33;;;;;;;1.10;1.10;;;;;;;-1.45;67.18;100086.84;6327843;22;20053;-80
2021/11/23 11:15:07;;;;;;;0.70;0.70;;;;;;;-1.27;67.07;100071.41;6383071;22;20025;-79
2021/11/23 11:17:37;;;;;;;;;;;;;;;-1.27;66.09;100073.97;6381284;22;20045;-80
2021/11/23 11:20:06;;;;;;;0.80;0.80;;;;;;;-1.18;66.04;100073.13;6381765;22;19913;-79
2021/11/23 11:22:53;;;;;;;0.55;0.55;;;;;;;-1.19;65.26;100072.25;6380188;22;20020;-77
2021/11/23 11:27:49;;;;;;;0.57;0.57;;;;;;;-1.40;66.50;100059.53;6367921;22;20017;-77